sensor_id;sensor_type;location;lat;lon;timestamp;pressure;altitude;pressure_sealevel;temperature;humidity
76609;BME280;65928;53.936;27.540;2022-12-18T00:02:04;99743.84;;;-6.26;78.39
76609;BME280;65928;53.936;27.540;2022-12-18T00:04:29;99737.78;;;-6.28;78.96
76609;BME280;65928;53.936;27.540;2022-12-18T00:06:55;99395.66;;;-8.40;78.64
76609;BME280;65928;53.936;27.540;2022-12-18T00:09:21;99393.09;;;-8.40;78.92
76609;BME280;65928;53.936;27.540;2022-12-18T00:11:46;99606.88;;;-7.17;78.67
76609;BME280;65928;53.936;27.540;2022-12-18T00:14:12;99459.44;;;-7.89;78.53
76609;BME280;65928;53.936;27.540;2022-12-18T00:16:38;99408.31;;;-8.14;77.54
76609;BME280;65928;53.936;27.540;2022-12-18T00:19:04;99766.09;;;-6.27;78.22
76609;BME280;65928;53.936;27.540;2022-12-18T00:21:31;99786.84;;;-6.21;77.88
76609;BME280;65928;53.936;27.540;2022-12-18T00:23:58;99787.09;;;-6.12;77.96
76609;BME280;65928;53.936;27.540;2022-12-18T00:26:29;99424.53;;;-8.45;77.51
76609;BME280;65928;53.936;27.540;2022-12-18T00:28:58;99792.69;;;-6.26;77.97
76609;BME280;65928;53.936;27.540;2022-12-18T00:31:25;99476.56;;;-8.18;77.60
76609;BME280;65928;53.936;27.540;2022-12-18T00:33:51;99791.03;;;-6.24;77.76
76609;BME280;65928;53.936;27.540;2022-12-18T00:36:20;99420.38;;;-8.42;77.46
76609;BME280;65928;53.936;27.540;2022-12-18T00:38:47;99722.13;;;-6.69;77.13
76609;BME280;65928;53.936;27.540;2022-12-18T00:41:14;99759.41;;;-6.53;77.01
76609;BME280;65928;53.936;27.540;2022-12-18T00:44:01;99423.94;;;-8.35;77.26
76609;BME280;65928;53.936;27.540;2022-12-18T00:46:27;99662.84;;;-7.34;77.66
76609;BME280;65928;53.936;27.540;2022-12-18T00:48:52;99821.41;;;-6.41;77.86
76609;BME280;65928;53.936;27.540;2022-12-18T00:51:17;99405.75;;;-8.72;77.35
76609;BME280;65928;53.936;27.540;2022-12-18T00:53:43;99513.22;;;-8.20;77.32
76609;BME280;65928;53.936;27.540;2022-12-18T00:56:08;99722.84;;;-7.02;77.49
76609;BME280;65928;53.936;27.540;2022-12-18T00:58:39;99490.06;;;-8.52;77.57
76609;BME280;65928;53.936;27.540;2022-12-18T01:01:05;99491.56;;;-8.85;77.54
76609;BME280;65928;53.936;27.540;2022-12-18T01:03:31;99476.19;;;-8.85;78.28
76609;BME280;65928;53.936;27.540;2022-12-18T01:05:56;99806.31;;;-6.88;78.11
76609;BME280;65928;53.936;27.540;2022-12-18T01:08:22;99484.34;;;-8.96;78.38
76609;BME280;65928;53.936;27.540;2022-12-18T01:10:47;99755.31;;;-7.32;78.40
76609;BME280;65928;53.936;27.540;2022-12-18T01:13:16;99881.63;;;-7.16;78.50
76609;BME280;65928;53.936;27.540;2022-12-18T01:15:48;99718.09;;;-7.73;78.61
76609;BME280;65928;53.936;27.540;2022-12-18T01:18:14;99537.31;;;-8.69;78.53
76609;BME280;65928;53.936;27.540;2022-12-18T01:20:39;99756.78;;;-7.41;78.01
76609;BME280;65928;53.936;27.540;2022-12-18T01:23:05;99411.22;;;-9.40;78.66
76609;BME280;65928;53.936;27.540;2022-12-18T01:25:30;99496.69;;;-8.85;78.66
76609;BME280;65928;53.936;27.540;2022-12-18T01:27:56;99438.56;;;-9.14;78.55
76609;BME280;65928;53.936;27.540;2022-12-18T01:30:22;99397.53;;;-9.42;78.61
76609;BME280;65928;53.936;27.540;2022-12-18T01:32:47;99766.66;;;-7.24;78.49
76609;BME280;65928;53.936;27.540;2022-12-18T01:35:13;99800.56;;;-7.08;78.51
76609;BME280;65928;53.936;27.540;2022-12-18T01:37:38;99823.56;;;-7.11;78.55
76609;BME280;65928;53.936;27.540;2022-12-18T01:40:04;99825.22;;;-7.13;78.96
76609;BME280;65928;53.936;27.540;2022-12-18T01:42:31;99740.09;;;-7.53;78.82
76609;BME280;65928;53.936;27.540;2022-12-18T01:45:00;99458.34;;;-9.34;78.26
76609;BME280;65928;53.936;27.540;2022-12-18T01:47:49;99846.63;;;-7.12;78.28
76609;BME280;65928;53.936;27.540;2022-12-18T01:52:46;99459.28;;;-9.32;78.05
76609;BME280;65928;53.936;27.540;2022-12-18T01:55:14;99465.47;;;-9.50;77.93
76609;BME280;65928;53.936;27.540;2022-12-18T01:57:41;99793.66;;;-7.64;78.29
76609;BME280;65928;53.936;27.540;2022-12-18T02:00:13;99776.34;;;-7.69;78.25
76609;BME280;65928;53.936;27.540;2022-12-18T02:02:43;99812.88;;;-7.51;78.34
76609;BME280;65928;53.936;27.540;2022-12-18T02:05:11;99553.59;;;-9.17;78.12
76609;BME280;65928;53.936;27.540;2022-12-18T02:07:42;99947.59;;;-7.39;77.85
76609;BME280;65928;53.936;27.540;2022-12-18T02:12:54;99879.78;;;-7.20;77.93
76609;BME280;65928;53.936;27.540;2022-12-18T02:15:27;99936.03;;;-7.26;77.73
76609;BME280;65928;53.936;27.540;2022-12-18T02:18:21;99866.16;;;-7.17;77.55
76609;BME280;65928;53.936;27.540;2022-12-18T02:20:59;99813.81;;;-7.74;77.59
76609;BME280;65928;53.936;27.540;2022-12-18T02:27:05;99522.91;;;-9.41;77.32
76609;BME280;65928;53.936;27.540;2022-12-18T02:29:16;99899.81;;;-7.35;77.47
76609;BME280;65928;53.936;27.540;2022-12-18T02:31:46;99531.28;;;-9.45;77.16
76609;BME280;65928;53.936;27.540;2022-12-18T02:34:15;99546.59;;;-9.46;76.90
76609;BME280;65928;53.936;27.540;2022-12-18T02:36:46;99919.50;;;-7.34;77.22
76609;BME280;65928;53.936;27.540;2022-12-18T02:39:13;99521.72;;;-9.74;77.65
76609;BME280;65928;53.936;27.540;2022-12-18T02:41:41;99941.59;;;-7.14;76.87
76609;BME280;65928;53.936;27.540;2022-12-18T02:44:10;99840.22;;;-7.77;76.51
76609;BME280;65928;53.936;27.540;2022-12-18T02:46:48;99541.00;;;-9.60;76.52
76609;BME280;65928;53.936;27.540;2022-12-18T02:52:10;99916.19;;;-7.32;76.74
76609;BME280;65928;53.936;27.540;2022-12-18T02:54:56;99822.16;;;-8.05;76.48
76609;BME280;65928;53.936;27.540;2022-12-18T03:05:10;99991.28;;;-7.37;76.66
76609;BME280;65928;53.936;27.540;2022-12-18T03:08:03;99990.56;;;-7.33;76.55
76609;BME280;65928;53.936;27.540;2022-12-18T03:10:30;100046.34;;;-7.29;76.45
76609;BME280;65928;53.936;27.540;2022-12-18T03:13:08;99678.63;;;-9.26;77.08
76609;BME280;65928;53.936;27.540;2022-12-18T03:15:38;99951.16;;;-7.59;76.33
76609;BME280;65928;53.936;27.540;2022-12-18T03:18:13;100026.72;;;-7.27;76.07
76609;BME280;65928;53.936;27.540;2022-12-18T03:20:43;99655.13;;;-9.38;75.84
76609;BME280;65928;53.936;27.540;2022-12-18T03:23:13;99832.13;;;-8.38;76.00
76609;BME280;65928;53.936;27.540;2022-12-18T03:25:42;99917.47;;;-7.93;76.23
76609;BME280;65928;53.936;27.540;2022-12-18T03:28:15;99984.13;;;-7.69;76.73
76609;BME280;65928;53.936;27.540;2022-12-18T03:30:47;100002.03;;;-7.47;77.20
76609;BME280;65928;53.936;27.540;2022-12-18T03:34:14;100018.38;;;-7.45;76.29
76609;BME280;65928;53.936;27.540;2022-12-18T03:36:32;100032.44;;;-7.58;76.49
76609;BME280;65928;53.936;27.540;2022-12-18T03:38:58;99632.16;;;-9.60;76.24
76609;BME280;65928;53.936;27.540;2022-12-18T03:44:15;99839.78;;;-8.61;75.98
76609;BME280;65928;53.936;27.540;2022-12-18T03:49:47;99653.34;;;-9.85;76.62
76609;BME280;65928;53.936;27.540;2022-12-18T03:52:21;99674.94;;;-9.56;76.51
76609;BME280;65928;53.936;27.540;2022-12-18T03:54:50;100028.59;;;-7.47;77.08
76609;BME280;65928;53.936;27.540;2022-12-18T03:57:21;99674.72;;;-9.83;76.23
76609;BME280;65928;53.936;27.540;2022-12-18T03:59:51;100047.50;;;-7.67;76.63
76609;BME280;65928;53.936;27.540;2022-12-18T04:02:20;100012.19;;;-7.74;77.24
76609;BME280;65928;53.936;27.540;2022-12-18T04:04:48;100054.59;;;-7.36;76.38
76609;BME280;65928;53.936;27.540;2022-12-18T04:07:17;99661.34;;;-9.77;76.19
76609;BME280;65928;53.936;27.540;2022-12-18T04:09:43;100075.66;;;-7.46;76.32
76609;BME280;65928;53.936;27.540;2022-12-18T04:12:10;99685.63;;;-9.66;75.64
76609;BME280;65928;53.936;27.540;2022-12-18T04:14:36;100057.00;;;-7.64;75.78
76609;BME280;65928;53.936;27.540;2022-12-18T04:17:02;99669.44;;;-10.08;76.19
76609;BME280;65928;53.936;27.540;2022-12-18T04:19:28;99842.53;;;-8.79;75.81
76609;BME280;65928;53.936;27.540;2022-12-18T04:21:54;99655.25;;;-10.01;76.07
76609;BME280;65928;53.936;27.540;2022-12-18T04:24:19;100075.16;;;-7.60;75.98
76609;BME280;65928;53.936;27.540;2022-12-18T04:26:45;100101.50;;;-7.64;76.42
76609;BME280;65928;53.936;27.540;2022-12-18T04:29:10;100090.31;;;-7.66;76.12
76609;BME280;65928;53.936;27.540;2022-12-18T04:31:36;100101.78;;;-7.56;76.07
76609;BME280;65928;53.936;27.540;2022-12-18T04:34:02;100040.91;;;-7.82;75.79
76609;BME280;65928;53.936;27.540;2022-12-18T04:36:28;100100.59;;;-7.18;75.26
76609;BME280;65928;53.936;27.540;2022-12-18T04:38:54;99711.31;;;-9.41;75.26
76609;BME280;65928;53.936;27.540;2022-12-18T04:41:19;99708.28;;;-9.53;75.64
76609;BME280;65928;53.936;27.540;2022-12-18T04:43:44;100089.56;;;-7.40;75.64
76609;BME280;65928;53.936;27.540;2022-12-18T04:46:10;100033.03;;;-7.65;75.21
76609;BME280;65928;53.936;27.540;2022-12-18T04:48:36;99743.28;;;-9.52;74.95
76609;BME280;65928;53.936;27.540;2022-12-18T04:51:04;100176.19;;;-7.34;75.53
76609;BME280;65928;53.936;27.540;2022-12-18T04:53:30;99723.63;;;-9.53;74.88
76609;BME280;65928;53.936;27.540;2022-12-18T04:56:13;100132.00;;;-7.03;75.25
76609;BME280;65928;53.936;27.540;2022-12-18T04:58:39;100146.16;;;-7.37;75.91
76609;BME280;65928;53.936;27.540;2022-12-18T05:01:05;100084.19;;;-7.91;76.66
76609;BME280;65928;53.936;27.540;2022-12-18T05:03:33;100142.00;;;-7.55;76.79
76609;BME280;65928;53.936;27.540;2022-12-18T05:05:59;100229.09;;;-7.60;76.61
76609;BME280;65928;53.936;27.540;2022-12-18T05:08:25;100167.50;;;-7.60;77.37
76609;BME280;65928;53.936;27.540;2022-12-18T05:11:08;99802.16;;;-9.71;77.45
76609;BME280;65928;53.936;27.540;2022-12-18T05:13:35;99797.38;;;-9.64;76.85
76609;BME280;65928;53.936;27.540;2022-12-18T05:16:01;100152.56;;;-7.70;77.55
76609;BME280;65928;53.936;27.540;2022-12-18T05:18:27;100173.69;;;-7.55;77.20
76609;BME280;65928;53.936;27.540;2022-12-18T05:20:53;100173.63;;;-7.34;77.28
76609;BME280;65928;53.936;27.540;2022-12-18T05:23:19;99806.81;;;-9.61;76.64
76609;BME280;65928;53.936;27.540;2022-12-18T05:26:05;100241.13;;;-7.37;76.80
76609;BME280;65928;53.936;27.540;2022-12-18T05:28:32;100180.31;;;-7.38;77.14
76609;BME280;65928;53.936;27.540;2022-12-18T05:31:00;99780.44;;;-9.81;76.51
76609;BME280;65928;53.936;27.540;2022-12-18T05:33:29;99804.41;;;-9.58;76.32
76609;BME280;65928;53.936;27.540;2022-12-18T05:35:57;99811.53;;;-9.72;76.60
76609;BME280;65928;53.936;27.540;2022-12-18T05:38:25;99828.97;;;-9.82;77.36
76609;BME280;65928;53.936;27.540;2022-12-18T05:40:51;100198.13;;;-7.64;77.71
76609;BME280;65928;53.936;27.540;2022-12-18T05:43:18;100285.53;;;-7.80;77.84
76609;BME280;65928;53.936;27.540;2022-12-18T05:45:44;100211.09;;;-7.82;78.34
76609;BME280;65928;53.936;27.540;2022-12-18T05:48:14;100225.88;;;-7.75;77.97
76609;BME280;65928;53.936;27.540;2022-12-18T05:50:42;100276.47;;;-7.93;78.69
76609;BME280;65928;53.936;27.540;2022-12-18T05:53:09;100137.28;;;-8.52;78.84
76609;BME280;65928;53.936;27.540;2022-12-18T05:55:35;99876.81;;;-9.99;78.08
76609;BME280;65928;53.936;27.540;2022-12-18T05:58:03;99926.50;;;-9.92;78.97
76609;BME280;65928;53.936;27.540;2022-12-18T06:00:29;100277.19;;;-7.95;79.05
76609;BME280;65928;53.936;27.540;2022-12-18T06:02:55;99856.56;;;-10.34;78.25
76609;BME280;65928;53.936;27.540;2022-12-18T06:05:21;99888.28;;;-10.29;78.19
76609;BME280;65928;53.936;27.540;2022-12-18T06:07:46;100238.47;;;-8.22;78.57
76609;BME280;65928;53.936;27.540;2022-12-18T06:10:12;100283.25;;;-7.93;77.70
76609;BME280;65928;53.936;27.540;2022-12-18T06:12:37;100275.63;;;-8.12;78.05
76609;BME280;65928;53.936;27.540;2022-12-18T06:15:03;100295.72;;;-8.02;78.26
76609;BME280;65928;53.936;27.540;2022-12-18T06:17:33;100298.59;;;-8.14;78.32
76609;BME280;65928;53.936;27.540;2022-12-18T06:19:58;99910.97;;;-10.54;78.35
76609;BME280;65928;53.936;27.540;2022-12-18T06:22:24;100316.44;;;-8.17;78.44
76609;BME280;65928;53.936;27.540;2022-12-18T06:24:50;100000.75;;;-10.08;78.25
76609;BME280;65928;53.936;27.540;2022-12-18T06:27:16;99873.28;;;-10.96;77.71
76609;BME280;65928;53.936;27.540;2022-12-18T06:29:41;100338.56;;;-8.19;78.53
76609;BME280;65928;53.936;27.540;2022-12-18T06:32:07;99940.63;;;-10.39;77.15
76609;BME280;65928;53.936;27.540;2022-12-18T06:34:33;100348.97;;;-8.35;77.43
76609;BME280;65928;53.936;27.540;2022-12-18T06:36:58;100350.41;;;-8.78;78.28
76609;BME280;65928;53.936;27.540;2022-12-18T06:39:30;100375.88;;;-8.45;78.08
76609;BME280;65928;53.936;27.540;2022-12-18T06:41:55;100109.16;;;-9.67;78.06
76609;BME280;65928;53.936;27.540;2022-12-18T06:44:21;100013.50;;;-10.28;77.10
76609;BME280;65928;53.936;27.540;2022-12-18T06:46:46;100307.13;;;-8.72;77.54
76609;BME280;65928;53.936;27.540;2022-12-18T06:49:12;100379.38;;;-8.43;77.81
76609;BME280;65928;53.936;27.540;2022-12-18T06:51:37;100396.63;;;-8.00;77.09
76609;BME280;65928;53.936;27.540;2022-12-18T06:54:03;100467.78;;;-7.77;76.30
76609;BME280;65928;53.936;27.540;2022-12-18T06:56:29;100077.47;;;-10.07;75.87
76609;BME280;65928;53.936;27.540;2022-12-18T06:58:54;100110.91;;;-10.02;75.75
76609;BME280;65928;53.936;27.540;2022-12-18T07:01:20;100076.16;;;-10.18;75.95
76609;BME280;65928;53.936;27.540;2022-12-18T07:03:46;100068.31;;;-10.21;76.61
76609;BME280;65928;53.936;27.540;2022-12-18T07:06:19;100009.75;;;-10.88;75.98
76609;BME280;65928;53.936;27.540;2022-12-18T07:12:07;100037.25;;;-10.65;76.33
76609;BME280;65928;53.936;27.540;2022-12-18T07:14:33;100417.53;;;-8.49;75.72
76609;BME280;65928;53.936;27.540;2022-12-18T07:16:59;100060.72;;;-10.55;75.42
76609;BME280;65928;53.936;27.540;2022-12-18T07:19:24;100440.84;;;-8.25;74.88
76609;BME280;65928;53.936;27.540;2022-12-18T07:21:50;100299.56;;;-9.25;75.25
76609;BME280;65928;53.936;27.540;2022-12-18T07:24:36;100443.44;;;-8.24;74.91
76609;BME280;65928;53.936;27.540;2022-12-18T07:27:02;100112.56;;;-10.22;75.05
76609;BME280;65928;53.936;27.540;2022-12-18T07:29:27;100037.66;;;-10.74;74.77
76609;BME280;65928;53.936;27.540;2022-12-18T07:35:08;100064.75;;;-10.42;74.40
76609;BME280;65928;53.936;27.540;2022-12-18T07:37:33;100463.03;;;-8.06;73.97
76609;BME280;65928;53.936;27.540;2022-12-18T07:39:59;100468.19;;;-7.87;74.10
76609;BME280;65928;53.936;27.540;2022-12-18T07:42:24;100471.19;;;-7.96;73.42
76609;BME280;65928;53.936;27.540;2022-12-18T07:44:56;100478.44;;;-8.06;73.69
76609;BME280;65928;53.936;27.540;2022-12-18T07:47:22;100070.94;;;-10.55;73.47
76609;BME280;65928;53.936;27.540;2022-12-18T07:49:47;100471.13;;;-7.78;72.42
76609;BME280;65928;53.936;27.540;2022-12-18T07:52:13;100108.38;;;-10.02;71.46
76609;BME280;65928;53.936;27.540;2022-12-18T07:54:39;100488.91;;;-8.19;72.61
76609;BME280;65928;53.936;27.540;2022-12-18T07:57:05;100552.03;;;-8.04;72.12
76609;BME280;65928;53.936;27.540;2022-12-18T07:59:31;100556.19;;;-8.25;71.34
76609;BME280;65928;53.936;27.540;2022-12-18T08:01:56;100323.75;;;-9.19;70.65
76609;BME280;65928;53.936;27.540;2022-12-18T08:04:22;100493.00;;;-8.77;71.27
76609;BME280;65928;53.936;27.540;2022-12-18T08:10:09;100517.28;;;-8.87;71.39
76609;BME280;65928;53.936;27.540;2022-12-18T08:12:35;100409.50;;;-9.44;70.45
76609;BME280;65928;53.936;27.540;2022-12-18T08:15:00;100534.06;;;-8.76;70.39
76609;BME280;65928;53.936;27.540;2022-12-18T08:20:28;100178.84;;;-10.59;69.85
76609;BME280;65928;53.936;27.540;2022-12-18T08:22:54;100136.69;;;-10.84;69.89
76609;BME280;65928;53.936;27.540;2022-12-18T08:25:20;100162.66;;;-10.75;69.04
76609;BME280;65928;53.936;27.540;2022-12-18T08:27:45;100535.47;;;-8.65;68.42
76609;BME280;65928;53.936;27.540;2022-12-18T08:30:11;100239.38;;;-10.56;68.44
76609;BME280;65928;53.936;27.540;2022-12-18T08:32:36;100546.22;;;-8.37;67.46
76609;BME280;65928;53.936;27.540;2022-12-18T08:35:02;100598.63;;;-8.65;67.31
76609;BME280;65928;53.936;27.540;2022-12-18T08:37:28;100116.16;;;-11.03;67.34
76609;BME280;65928;53.936;27.540;2022-12-18T08:39:53;100230.44;;;-10.64;67.51
76609;BME280;65928;53.936;27.540;2022-12-18T08:42:19;100148.38;;;-11.06;67.68
76609;BME280;65928;53.936;27.540;2022-12-18T08:45:03;100559.19;;;-9.19;68.65
76609;BME280;65928;53.936;27.540;2022-12-18T08:47:29;100153.06;;;-11.29;68.46
76609;BME280;65928;53.936;27.540;2022-12-18T08:49:55;100509.16;;;-9.30;68.43
76609;BME280;65928;53.936;27.540;2022-12-18T08:52:20;100631.03;;;-9.15;68.41
76609;BME280;65928;53.936;27.540;2022-12-18T08:54:45;100575.59;;;-8.48;67.00
76609;BME280;65928;53.936;27.540;2022-12-18T08:57:11;100538.66;;;-8.86;66.50
76609;BME280;65928;53.936;27.540;2022-12-18T08:59:36;100501.75;;;-9.41;67.17
76609;BME280;65928;53.936;27.540;2022-12-18T09:02:02;100194.97;;;-11.24;67.68
76609;BME280;65928;53.936;27.540;2022-12-18T09:04:28;100626.75;;;-8.99;67.73
76609;BME280;65928;53.936;27.540;2022-12-18T09:06:56;100169.47;;;-11.08;66.96
76609;BME280;65928;53.936;27.540;2022-12-18T09:13:04;100600.44;;;-8.96;66.31
76609;BME280;65928;53.936;27.540;2022-12-18T09:15:29;100536.97;;;-9.20;66.86
76609;BME280;65928;53.936;27.540;2022-12-18T09:17:54;100247.53;;;-10.95;66.59
76609;BME280;65928;53.936;27.540;2022-12-18T09:20:20;100658.69;;;-8.92;67.07
76609;BME280;65928;53.936;27.540;2022-12-18T09:22:45;100216.94;;;-11.42;67.59
76609;BME280;65928;53.936;27.540;2022-12-18T09:25:11;100574.22;;;-9.25;66.71
76609;BME280;65928;53.936;27.540;2022-12-18T09:27:37;100619.47;;;-8.91;67.25
76609;BME280;65928;53.936;27.540;2022-12-18T09:30:02;100236.34;;;-11.30;66.49
76609;BME280;65928;53.936;27.540;2022-12-18T09:32:28;100614.69;;;-9.34;67.62
76609;BME280;65928;53.936;27.540;2022-12-18T09:34:54;100492.81;;;-10.14;68.55
76609;BME280;65928;53.936;27.540;2022-12-18T09:37:19;100541.78;;;-9.74;68.10
76609;BME280;65928;53.936;27.540;2022-12-18T09:39:45;100639.06;;;-9.40;67.74
76609;BME280;65928;53.936;27.540;2022-12-18T09:42:36;100642.38;;;-9.27;67.93
76609;BME280;65928;53.936;27.540;2022-12-18T09:45:02;100620.22;;;-9.58;68.66
76609;BME280;65928;53.936;27.540;2022-12-18T09:47:32;100239.06;;;-11.73;68.29
76609;BME280;65928;53.936;27.540;2022-12-18T09:50:04;100651.00;;;-9.25;68.04
76609;BME280;65928;53.936;27.540;2022-12-18T09:52:35;100253.19;;;-11.48;67.28
76609;BME280;65928;53.936;27.540;2022-12-18T09:55:28;100653.56;;;-9.25;67.72
76609;BME280;65928;53.936;27.540;2022-12-18T09:58:00;100658.22;;;-9.18;67.40
76609;BME280;65928;53.936;27.540;2022-12-18T10:00:29;100508.88;;;-9.84;67.19
76609;BME280;65928;53.936;27.540;2022-12-18T10:03:10;100581.81;;;-9.42;67.27
76609;BME280;65928;53.936;27.540;2022-12-18T10:11:43;100268.13;;;-11.39;67.19
76609;BME280;65928;53.936;27.540;2022-12-18T10:17:18;100679.09;;;-9.10;66.68
76609;BME280;65928;53.936;27.540;2022-12-18T10:19:49;100723.50;;;-9.09;67.61
76609;BME280;65928;53.936;27.540;2022-12-18T10:22:25;100647.19;;;-9.00;67.01
76609;BME280;65928;53.936;27.540;2022-12-18T10:27:26;100254.63;;;-10.58;65.45
76609;BME280;65928;53.936;27.540;2022-12-18T10:29:53;100471.56;;;-8.97;65.14
76609;BME280;65928;53.936;27.540;2022-12-18T10:32:24;100433.78;;;-9.70;64.24
76609;BME280;65928;53.936;27.540;2022-12-18T10:34:52;100427.75;;;-8.85;63.87
76609;BME280;65928;53.936;27.540;2022-12-18T10:37:20;100732.13;;;-7.74;63.95
76609;BME280;65928;53.936;27.540;2022-12-18T10:40:14;100261.72;;;-10.36;64.35
76609;BME280;65928;53.936;27.540;2022-12-18T10:42:40;100740.06;;;-7.70;64.20
76609;BME280;65928;53.936;27.540;2022-12-18T10:45:15;100301.06;;;-9.99;64.23
76609;BME280;65928;53.936;27.540;2022-12-18T10:47:48;100335.94;;;-9.13;64.46
76609;BME280;65928;53.936;27.540;2022-12-18T10:50:35;100308.97;;;-9.24;62.77
76609;BME280;65928;53.936;27.540;2022-12-18T10:53:03;100307.53;;;-9.37;62.73
76609;BME280;65928;53.936;27.540;2022-12-18T10:55:39;100570.53;;;-7.74;63.94
76609;BME280;65928;53.936;27.540;2022-12-18T11:04:09;100369.72;;;-9.55;64.32
76609;BME280;65928;53.936;27.540;2022-12-18T11:06:53;100578.47;;;-8.42;65.38
76609;BME280;65928;53.936;27.540;2022-12-18T11:09:20;100753.47;;;-7.58;65.00
76609;BME280;65928;53.936;27.540;2022-12-18T11:15:18;100395.06;;;-9.60;65.46
76609;BME280;65928;53.936;27.540;2022-12-18T11:17:48;100291.66;;;-10.50;66.22
76609;BME280;65928;53.936;27.540;2022-12-18T11:22:58;100328.75;;;-10.40;66.38
76609;BME280;65928;53.936;27.540;2022-12-18T11:25:24;100739.53;;;-8.14;67.39
76609;BME280;65928;53.936;27.540;2022-12-18T11:27:59;100736.44;;;-8.08;66.29
76609;BME280;65928;53.936;27.540;2022-12-18T11:30:36;100313.81;;;-10.49;66.88
76609;BME280;65928;53.936;27.540;2022-12-18T11:33:16;100386.13;;;-9.68;65.36
76609;BME280;65928;53.936;27.540;2022-12-18T11:35:56;100684.78;;;-7.81;65.83
76609;BME280;65928;53.936;27.540;2022-12-18T11:38:36;100334.75;;;-9.72;64.96
76609;BME280;65928;53.936;27.540;2022-12-18T11:41:26;100685.97;;;-7.74;65.71
76609;BME280;65928;53.936;27.540;2022-12-18T11:44:21;100715.91;;;-7.56;65.29
76609;BME280;65928;53.936;27.540;2022-12-18T11:47:05;100681.84;;;-7.88;65.60
76609;BME280;65928;53.936;27.540;2022-12-18T11:49:35;100615.78;;;-8.80;66.72
76609;BME280;65928;53.936;27.540;2022-12-18T12:11:24;100803.78;;;-7.08;64.61
76609;BME280;65928;53.936;27.540;2022-12-18T12:19:54;100791.59;;;-7.30;65.87
76609;BME280;65928;53.936;27.540;2022-12-18T12:38:50;100742.66;;;-8.03;67.85
76609;BME280;65928;53.936;27.540;2022-12-18T12:41:23;100847.25;;;-7.64;67.77
76609;BME280;65928;53.936;27.540;2022-12-18T12:44:23;100739.28;;;-8.20;67.85
76609;BME280;65928;53.936;27.540;2022-12-18T12:46:52;100827.06;;;-7.74;68.02
76609;BME280;65928;53.936;27.540;2022-12-18T12:49:26;100484.47;;;-9.61;67.58
76609;BME280;65928;53.936;27.540;2022-12-18T12:51:55;100839.78;;;-7.93;69.16
76609;BME280;65928;53.936;27.540;2022-12-18T12:54:24;100818.28;;;-7.79;68.13
76609;BME280;65928;53.936;27.540;2022-12-18T12:59:40;100829.13;;;-7.50;68.10
76609;BME280;65928;53.936;27.540;2022-12-18T13:05:13;100850.59;;;-7.65;68.49
76609;BME280;65928;53.936;27.540;2022-12-18T13:08:07;100460.75;;;-9.75;68.11
76609;BME280;65928;53.936;27.540;2022-12-18T13:10:39;100432.81;;;-9.88;67.74
76609;BME280;65928;53.936;27.540;2022-12-18T13:13:10;100795.84;;;-7.83;68.19
76609;BME280;65928;53.936;27.540;2022-12-18T13:29:45;100875.56;;;-7.45;68.51
76609;BME280;65928;53.936;27.540;2022-12-18T13:32:24;100853.13;;;-7.49;68.86
76609;BME280;65928;53.936;27.540;2022-12-18T13:37:51;100944.09;;;-6.93;67.85
76609;BME280;65928;53.936;27.540;2022-12-18T13:45:59;100955.94;;;-7.12;68.73
76609;BME280;65928;53.936;27.540;2022-12-18T13:48:26;100508.59;;;-8.90;68.28
76609;BME280;65928;53.936;27.540;2022-12-18T13:54:33;100506.78;;;-8.75;67.63
76609;BME280;65928;53.936;27.540;2022-12-18T13:57:01;100518.63;;;-8.77;68.00
76609;BME280;65928;53.936;27.540;2022-12-18T13:59:36;100644.84;;;-8.46;68.60
76609;BME280;65928;53.936;27.540;2022-12-18T14:05:27;100949.59;;;-6.68;68.65
76609;BME280;65928;53.936;27.540;2022-12-18T14:07:54;100532.44;;;-9.25;69.42
76609;BME280;65928;53.936;27.540;2022-12-18T14:10:20;100466.25;;;-9.51;69.54
76609;BME280;65928;53.936;27.540;2022-12-18T14:12:49;100550.06;;;-8.80;69.12
76609;BME280;65928;53.936;27.540;2022-12-18T14:15:43;100984.97;;;-6.97;69.68
76609;BME280;65928;53.936;27.540;2022-12-18T14:18:33;100996.28;;;-6.94;69.76
76609;BME280;65928;53.936;27.540;2022-12-18T14:21:03;100973.88;;;-7.14;70.33
76609;BME280;65928;53.936;27.540;2022-12-18T14:24:12;100936.53;;;-7.07;70.34
76609;BME280;65928;53.936;27.540;2022-12-18T14:26:39;100965.47;;;-7.27;70.75
76609;BME280;65928;53.936;27.540;2022-12-18T14:29:22;100946.13;;;-7.21;70.60
76609;BME280;65928;53.936;27.540;2022-12-18T14:34:30;100961.91;;;-7.13;70.26
76609;BME280;65928;53.936;27.540;2022-12-18T14:36:55;100618.91;;;-8.52;69.26
76609;BME280;65928;53.936;27.540;2022-12-18T14:39:21;100816.34;;;-7.83;69.69
76609;BME280;65928;53.936;27.540;2022-12-18T14:41:49;100587.28;;;-9.20;70.12
76609;BME280;65928;53.936;27.540;2022-12-18T14:44:15;100977.06;;;-6.84;69.79
76609;BME280;65928;53.936;27.540;2022-12-18T14:46:45;100963.34;;;-6.67;69.06
76609;BME280;65928;53.936;27.540;2022-12-18T14:55:19;100610.25;;;-8.72;69.05
76609;BME280;65928;53.936;27.540;2022-12-18T14:57:50;100887.63;;;-7.44;70.09
76609;BME280;65928;53.936;27.540;2022-12-18T15:00:22;100587.03;;;-9.08;69.54
76609;BME280;65928;53.936;27.540;2022-12-18T15:02:56;100917.88;;;-7.21;70.28
76609;BME280;65928;53.936;27.540;2022-12-18T15:05:28;100494.25;;;-9.54;69.98
76609;BME280;65928;53.936;27.540;2022-12-18T15:08:56;100963.91;;;-6.90;70.26
76609;BME280;65928;53.936;27.540;2022-12-18T15:11:03;101010.16;;;-6.90;70.21
76609;BME280;65928;53.936;27.540;2022-12-18T15:13:29;100962.69;;;-6.81;70.15
76609;BME280;65928;53.936;27.540;2022-12-18T15:15:57;100965.91;;;-6.85;70.27
76609;BME280;65928;53.936;27.540;2022-12-18T15:18:33;100994.59;;;-6.76;70.15
76609;BME280;65928;53.936;27.540;2022-12-18T15:21:09;100974.28;;;-6.71;69.64
76609;BME280;65928;53.936;27.540;2022-12-18T15:23:52;100693.50;;;-8.30;70.01
76609;BME280;65928;53.936;27.540;2022-12-18T15:26:20;100653.09;;;-8.52;69.52
76609;BME280;65928;53.936;27.540;2022-12-18T15:28:52;100558.78;;;-9.10;69.12